sensor_id;sensor_type;location;lat;lon;timestamp;P1;durP1;ratioP1;P2;durP2;ratioP2
13202;SDS011;6666;51.626;7.530;2023-05-25T00:02:03;16.53;;;5.37;;
13202;SDS011;6666;51.626;7.530;2023-05-25T00:04:31;9.40;;;5.18;;
13202;SDS011;6666;51.626;7.530;2023-05-25T00:07:01;14.00;;;5.53;;
13202;SDS011;6666;51.626;7.530;2023-05-25T00:09:29;13.27;;;5.93;;
13202;SDS011;6666;51.626;7.530;2023-05-25T00:11:57;11.43;;;6.50;;
13202;SDS011;6666;51.626;7.530;2023-05-25T00:14:26;8.48;;;5.13;;
13202;SDS011;6666;51.626;7.530;2023-05-25T00:16:57;10.68;;;5.40;;
13202;SDS011;6666;51.626;7.530;2023-05-25T00:19:30;12.98;;;5.85;;
13202;SDS011;6666;51.626;7.530;2023-05-25T00:21:59;11.65;;;5.18;;
13202;SDS011;6666;51.626;7.530;2023-05-25T00:24:27;11.55;;;5.32;;
13202;SDS011;6666;51.626;7.530;2023-05-25T00:26:56;8.50;;;5.10;;
13202;SDS011;6666;51.626;7.530;2023-05-25T00:29:24;15.60;;;5.32;;
13202;SDS011;6666;51.626;7.530;2023-05-25T00:31:52;11.75;;;5.40;;
13202;SDS011;6666;51.626;7.530;2023-05-25T00:34:20;8.95;;;5.40;;
13202;SDS011;6666;51.626;7.530;2023-05-25T00:36:50;11.85;;;5.57;;
13202;SDS011;6666;51.626;7.530;2023-05-25T00:39:18;12.15;;;5.75;;
13202;SDS011;6666;51.626;7.530;2023-05-25T00:41:47;10.85;;;5.10;;
13202;SDS011;6666;51.626;7.530;2023-05-25T00:44:16;14.13;;;5.90;;
13202;SDS011;6666;51.626;7.530;2023-05-25T00:46:47;13.48;;;5.35;;
13202;SDS011;6666;51.626;7.530;2023-05-25T00:49:17;11.70;;;5.97;;
13202;SDS011;6666;51.626;7.530;2023-05-25T00:51:48;8.50;;;5.03;;
13202;SDS011;6666;51.626;7.530;2023-05-25T00:54:19;10.20;;;5.03;;
13202;SDS011;6666;51.626;7.530;2023-05-25T00:56:49;12.52;;;5.90;;
13202;SDS011;6666;51.626;7.530;2023-05-25T00:59:19;11.30;;;5.55;;
13202;SDS011;6666;51.626;7.530;2023-05-25T01:01:53;10.20;;;5.13;;
13202;SDS011;6666;51.626;7.530;2023-05-25T01:04:23;11.40;;;5.40;;
13202;SDS011;6666;51.626;7.530;2023-05-25T01:06:56;9.60;;;5.40;;
13202;SDS011;6666;51.626;7.530;2023-05-25T01:09:26;8.90;;;4.57;;
13202;SDS011;6666;51.626;7.530;2023-05-25T01:11:56;9.90;;;5.30;;
13202;SDS011;6666;51.626;7.530;2023-05-25T01:14:25;10.57;;;5.28;;
13202;SDS011;6666;51.626;7.530;2023-05-25T01:16:54;13.50;;;5.53;;
13202;SDS011;6666;51.626;7.530;2023-05-25T01:19:24;10.70;;;5.13;;
13202;SDS011;6666;51.626;7.530;2023-05-25T01:21:55;12.50;;;5.32;;
13202;SDS011;6666;51.626;7.530;2023-05-25T01:24:29;14.38;;;5.50;;
13202;SDS011;6666;51.626;7.530;2023-05-25T01:27:07;12.40;;;5.88;;
13202;SDS011;6666;51.626;7.530;2023-05-25T01:29:40;10.73;;;5.32;;
13202;SDS011;6666;51.626;7.530;2023-05-25T01:32:11;11.43;;;5.05;;
13202;SDS011;6666;51.626;7.530;2023-05-25T01:34:40;15.35;;;5.05;;
13202;SDS011;6666;51.626;7.530;2023-05-25T01:37:11;12.02;;;5.50;;
13202;SDS011;6666;51.626;7.530;2023-05-25T01:39:39;17.35;;;4.93;;
13202;SDS011;6666;51.626;7.530;2023-05-25T01:42:16;11.35;;;5.18;;
13202;SDS011;6666;51.626;7.530;2023-05-25T01:44:44;9.00;;;5.00;;
13202;SDS011;6666;51.626;7.530;2023-05-25T01:47:14;11.77;;;5.28;;
13202;SDS011;6666;51.626;7.530;2023-05-25T01:49:49;9.13;;;4.80;;
13202;SDS011;6666;51.626;7.530;2023-05-25T01:52:31;8.20;;;5.65;;
13202;SDS011;6666;51.626;7.530;2023-05-25T01:55:04;16.40;;;6.20;;
13202;SDS011;6666;51.626;7.530;2023-05-25T01:57:36;13.40;;;5.80;;
13202;SDS011;6666;51.626;7.530;2023-05-25T02:00:08;12.82;;;5.50;;
13202;SDS011;6666;51.626;7.530;2023-05-25T02:02:39;12.75;;;6.00;;
13202;SDS011;6666;51.626;7.530;2023-05-25T02:05:09;8.30;;;5.50;;
13202;SDS011;6666;51.626;7.530;2023-05-25T02:07:39;10.97;;;5.53;;
13202;SDS011;6666;51.626;7.530;2023-05-25T02:10:07;10.23;;;5.65;;
13202;SDS011;6666;51.626;7.530;2023-05-25T02:12:36;13.40;;;6.00;;
13202;SDS011;6666;51.626;7.530;2023-05-25T02:15:04;13.88;;;5.95;;
13202;SDS011;6666;51.626;7.530;2023-05-25T02:17:33;7.82;;;5.15;;
13202;SDS011;6666;51.626;7.530;2023-05-25T02:20:03;11.45;;;5.57;;
13202;SDS011;6666;51.626;7.530;2023-05-25T02:22:33;11.23;;;5.72;;
13202;SDS011;6666;51.626;7.530;2023-05-25T02:25:07;10.55;;;5.32;;
13202;SDS011;6666;51.626;7.530;2023-05-25T02:27:35;14.57;;;5.43;;
13202;SDS011;6666;51.626;7.530;2023-05-25T02:30:05;11.73;;;5.20;;
13202;SDS011;6666;51.626;7.530;2023-05-25T02:32:34;12.90;;;5.78;;
13202;SDS011;6666;51.626;7.530;2023-05-25T02:35:03;11.30;;;5.70;;
13202;SDS011;6666;51.626;7.530;2023-05-25T02:37:32;8.85;;;4.68;;
13202;SDS011;6666;51.626;7.530;2023-05-25T02:40:01;8.38;;;5.10;;
13202;SDS011;6666;51.626;7.530;2023-05-25T02:42:31;11.13;;;4.95;;
13202;SDS011;6666;51.626;7.530;2023-05-25T02:44:59;9.40;;;4.90;;
13202;SDS011;6666;51.626;7.530;2023-05-25T02:47:28;15.88;;;5.03;;
13202;SDS011;6666;51.626;7.530;2023-05-25T02:49:56;9.00;;;5.55;;
13202;SDS011;6666;51.626;7.530;2023-05-25T02:52:24;9.48;;;5.10;;
13202;SDS011;6666;51.626;7.530;2023-05-25T02:54:53;16.73;;;5.97;;
13202;SDS011;6666;51.626;7.530;2023-05-25T02:57:28;7.70;;;5.40;;
13202;SDS011;6666;51.626;7.530;2023-05-25T02:59:59;8.57;;;5.50;;
13202;SDS011;6666;51.626;7.530;2023-05-25T03:02:27;8.83;;;5.30;;
13202;SDS011;6666;51.626;7.530;2023-05-25T03:04:56;10.98;;;5.30;;
13202;SDS011;6666;51.626;7.530;2023-05-25T03:07:28;11.07;;;5.60;;
13202;SDS011;6666;51.626;7.530;2023-05-25T03:09:56;8.40;;;5.50;;
13202;SDS011;6666;51.626;7.530;2023-05-25T03:12:24;8.47;;;5.13;;
13202;SDS011;6666;51.626;7.530;2023-05-25T03:14:53;10.10;;;5.00;;
13202;SDS011;6666;51.626;7.530;2023-05-25T03:17:22;14.63;;;5.63;;
13202;SDS011;6666;51.626;7.530;2023-05-25T03:19:50;10.17;;;5.73;;
13202;SDS011;6666;51.626;7.530;2023-05-25T03:22:19;9.48;;;6.10;;
13202;SDS011;6666;51.626;7.530;2023-05-25T03:24:47;10.70;;;4.50;;
13202;SDS011;6666;51.626;7.530;2023-05-25T03:27:16;14.98;;;5.70;;
13202;SDS011;6666;51.626;7.530;2023-05-25T03:29:44;9.68;;;5.40;;
13202;SDS011;6666;51.626;7.530;2023-05-25T03:32:14;11.90;;;5.55;;
13202;SDS011;6666;51.626;7.530;2023-05-25T03:34:44;13.73;;;5.50;;
13202;SDS011;6666;51.626;7.530;2023-05-25T03:37:14;9.68;;;5.30;;
13202;SDS011;6666;51.626;7.530;2023-05-25T03:39:43;9.20;;;5.30;;
13202;SDS011;6666;51.626;7.530;2023-05-25T03:42:11;9.55;;;5.70;;
13202;SDS011;6666;51.626;7.530;2023-05-25T03:44:39;13.65;;;5.55;;
13202;SDS011;6666;51.626;7.530;2023-05-25T03:47:08;9.43;;;5.15;;
13202;SDS011;6666;51.626;7.530;2023-05-25T03:49:36;15.48;;;6.10;;
13202;SDS011;6666;51.626;7.530;2023-05-25T03:52:06;12.18;;;5.32;;
13202;SDS011;6666;51.626;7.530;2023-05-25T03:54:34;11.15;;;5.40;;
13202;SDS011;6666;51.626;7.530;2023-05-25T03:57:02;11.10;;;5.45;;
13202;SDS011;6666;51.626;7.530;2023-05-25T03:59:31;9.73;;;4.70;;
13202;SDS011;6666;51.626;7.530;2023-05-25T04:01:59;7.95;;;5.15;;
13202;SDS011;6666;51.626;7.530;2023-05-25T04:04:27;8.47;;;5.10;;
13202;SDS011;6666;51.626;7.530;2023-05-25T04:06:57;9.53;;;5.20;;
13202;SDS011;6666;51.626;7.530;2023-05-25T04:09:26;11.10;;;4.90;;
13202;SDS011;6666;51.626;7.530;2023-05-25T04:11:54;8.03;;;5.37;;
13202;SDS011;6666;51.626;7.530;2023-05-25T04:14:22;9.75;;;5.35;;
13202;SDS011;6666;51.626;7.530;2023-05-25T04:16:51;9.15;;;5.50;;
13202;SDS011;6666;51.626;7.530;2023-05-25T04:19:19;11.90;;;5.53;;
13202;SDS011;6666;51.626;7.530;2023-05-25T04:21:47;12.50;;;6.00;;
13202;SDS011;6666;51.626;7.530;2023-05-25T04:24:15;10.90;;;5.57;;
13202;SDS011;6666;51.626;7.530;2023-05-25T04:26:44;9.80;;;5.75;;
13202;SDS011;6666;51.626;7.530;2023-05-25T04:29:13;9.57;;;5.32;;
13202;SDS011;6666;51.626;7.530;2023-05-25T04:32:04;9.77;;;5.43;;
13202;SDS011;6666;51.626;7.530;2023-05-25T04:34:48;10.13;;;5.40;;
13202;SDS011;6666;51.626;7.530;2023-05-25T04:37:21;10.07;;;4.63;;
13202;SDS011;6666;51.626;7.530;2023-05-25T04:39:53;6.40;;;3.97;;
13202;SDS011;6666;51.626;7.530;2023-05-25T04:42:24;6.73;;;4.30;;
13202;SDS011;6666;51.626;7.530;2023-05-25T04:44:54;8.60;;;4.35;;
13202;SDS011;6666;51.626;7.530;2023-05-25T04:47:23;7.72;;;4.10;;
13202;SDS011;6666;51.626;7.530;2023-05-25T04:49:52;6.28;;;3.70;;
13202;SDS011;6666;51.626;7.530;2023-05-25T04:52:21;7.75;;;3.85;;
13202;SDS011;6666;51.626;7.530;2023-05-25T04:54:49;7.50;;;4.00;;
13202;SDS011;6666;51.626;7.530;2023-05-25T04:57:18;9.70;;;4.00;;
13202;SDS011;6666;51.626;7.530;2023-05-25T04:59:49;8.80;;;4.30;;
13202;SDS011;6666;51.626;7.530;2023-05-25T05:02:17;8.77;;;3.95;;
13202;SDS011;6666;51.626;7.530;2023-05-25T05:04:46;7.67;;;4.00;;
13202;SDS011;6666;51.626;7.530;2023-05-25T05:07:18;8.82;;;3.67;;
13202;SDS011;6666;51.626;7.530;2023-05-25T05:09:47;7.05;;;3.67;;
13202;SDS011;6666;51.626;7.530;2023-05-25T05:12:16;9.13;;;4.00;;
13202;SDS011;6666;51.626;7.530;2023-05-25T05:14:49;7.28;;;3.53;;
13202;SDS011;6666;51.626;7.530;2023-05-25T05:17:18;9.15;;;3.80;;
13202;SDS011;6666;51.626;7.530;2023-05-25T05:19:48;8.23;;;3.85;;
13202;SDS011;6666;51.626;7.530;2023-05-25T05:22:16;8.88;;;4.10;;
13202;SDS011;6666;51.626;7.530;2023-05-25T05:24:44;8.38;;;4.07;;
13202;SDS011;6666;51.626;7.530;2023-05-25T05:27:19;8.23;;;4.35;;
13202;SDS011;6666;51.626;7.530;2023-05-25T05:29:54;6.30;;;3.70;;
13202;SDS011;6666;51.626;7.530;2023-05-25T05:32:23;7.22;;;3.63;;
13202;SDS011;6666;51.626;7.530;2023-05-25T05:34:51;11.10;;;3.58;;
13202;SDS011;6666;51.626;7.530;2023-05-25T05:37:36;9.23;;;3.90;;
13202;SDS011;6666;51.626;7.530;2023-05-25T05:40:05;10.82;;;4.20;;
13202;SDS011;6666;51.626;7.530;2023-05-25T05:42:35;12.10;;;3.70;;
13202;SDS011;6666;51.626;7.530;2023-05-25T05:45:05;8.65;;;3.80;;
13202;SDS011;6666;51.626;7.530;2023-05-25T05:47:34;7.50;;;3.28;;
13202;SDS011;6666;51.626;7.530;2023-05-25T05:50:02;9.45;;;3.47;;
13202;SDS011;6666;51.626;7.530;2023-05-25T05:52:33;10.57;;;3.55;;
13202;SDS011;6666;51.626;7.530;2023-05-25T05:55:02;11.57;;;4.10;;
13202;SDS011;6666;51.626;7.530;2023-05-25T05:57:31;7.25;;;3.08;;
13202;SDS011;6666;51.626;7.530;2023-05-25T06:00:00;11.35;;;3.63;;
13202;SDS011;6666;51.626;7.530;2023-05-25T06:02:41;7.10;;;3.05;;
13202;SDS011;6666;51.626;7.530;2023-05-25T06:05:16;8.98;;;3.70;;
13202;SDS011;6666;51.626;7.530;2023-05-25T06:07:44;8.77;;;3.00;;
13202;SDS011;6666;51.626;7.530;2023-05-25T06:10:13;9.48;;;2.90;;
13202;SDS011;6666;51.626;7.530;2023-05-25T06:12:42;10.13;;;3.28;;
13202;SDS011;6666;51.626;7.530;2023-05-25T06:15:10;10.38;;;3.13;;
13202;SDS011;6666;51.626;7.530;2023-05-25T06:17:39;6.88;;;3.20;;
13202;SDS011;6666;51.626;7.530;2023-05-25T06:20:11;9.77;;;3.10;;
13202;SDS011;6666;51.626;7.530;2023-05-25T06:22:41;9.88;;;3.10;;
13202;SDS011;6666;51.626;7.530;2023-05-25T06:25:09;13.30;;;3.40;;
13202;SDS011;6666;51.626;7.530;2023-05-25T06:27:37;9.38;;;3.03;;
13202;SDS011;6666;51.626;7.530;2023-05-25T06:30:06;8.93;;;2.85;;
13202;SDS011;6666;51.626;7.530;2023-05-25T06:32:35;7.63;;;3.08;;
13202;SDS011;6666;51.626;7.530;2023-05-25T06:35:03;9.32;;;3.05;;
13202;SDS011;6666;51.626;7.530;2023-05-25T06:37:35;10.95;;;3.53;;
13202;SDS011;6666;51.626;7.530;2023-05-25T06:40:05;7.88;;;3.35;;
13202;SDS011;6666;51.626;7.530;2023-05-25T06:42:38;9.23;;;3.40;;
13202;SDS011;6666;51.626;7.530;2023-05-25T06:45:26;9.82;;;3.45;;
13202;SDS011;6666;51.626;7.530;2023-05-25T06:47:54;8.43;;;3.47;;
13202;SDS011;6666;51.626;7.530;2023-05-25T06:50:23;8.50;;;4.20;;
13202;SDS011;6666;51.626;7.530;2023-05-25T06:52:53;12.43;;;4.60;;
13202;SDS011;6666;51.626;7.530;2023-05-25T06:55:21;9.00;;;4.17;;
13202;SDS011;6666;51.626;7.530;2023-05-25T06:57:49;15.43;;;4.50;;
13202;SDS011;6666;51.626;7.530;2023-05-25T07:00:18;14.10;;;4.70;;
13202;SDS011;6666;51.626;7.530;2023-05-25T07:02:47;9.70;;;4.90;;
13202;SDS011;6666;51.626;7.530;2023-05-25T07:05:15;10.63;;;4.60;;
13202;SDS011;6666;51.626;7.530;2023-05-25T07:07:43;9.05;;;4.65;;
13202;SDS011;6666;51.626;7.530;2023-05-25T07:10:12;11.27;;;4.63;;
13202;SDS011;6666;51.626;7.530;2023-05-25T07:12:41;12.00;;;4.80;;
13202;SDS011;6666;51.626;7.530;2023-05-25T07:15:09;8.18;;;4.53;;
13202;SDS011;6666;51.626;7.530;2023-05-25T07:17:38;14.43;;;4.90;;
13202;SDS011;6666;51.626;7.530;2023-05-25T07:20:07;10.10;;;4.50;;
13202;SDS011;6666;51.626;7.530;2023-05-25T07:22:36;8.88;;;5.30;;
13202;SDS011;6666;51.626;7.530;2023-05-25T07:25:04;11.70;;;4.75;;
13202;SDS011;6666;51.626;7.530;2023-05-25T07:27:34;11.10;;;5.50;;
13202;SDS011;6666;51.626;7.530;2023-05-25T07:30:03;12.13;;;4.90;;
13202;SDS011;6666;51.626;7.530;2023-05-25T07:32:32;9.80;;;5.10;;
13202;SDS011;6666;51.626;7.530;2023-05-25T07:35:00;11.90;;;5.20;;
13202;SDS011;6666;51.626;7.530;2023-05-25T07:37:29;10.67;;;5.20;;
13202;SDS011;6666;51.626;7.530;2023-05-25T07:39:57;11.35;;;5.05;;
13202;SDS011;6666;51.626;7.530;2023-05-25T07:42:25;11.70;;;4.90;;
13202;SDS011;6666;51.626;7.530;2023-05-25T07:45:00;12.87;;;5.10;;
13202;SDS011;6666;51.626;7.530;2023-05-25T07:47:29;12.60;;;5.00;;
13202;SDS011;6666;51.626;7.530;2023-05-25T07:49:57;9.90;;;4.90;;
13202;SDS011;6666;51.626;7.530;2023-05-25T07:52:25;14.98;;;4.82;;
13202;SDS011;6666;51.626;7.530;2023-05-25T07:54:53;12.70;;;5.10;;
13202;SDS011;6666;51.626;7.530;2023-05-25T07:57:21;11.00;;;4.75;;
13202;SDS011;6666;51.626;7.530;2023-05-25T07:59:50;12.45;;;5.10;;
13202;SDS011;6666;51.626;7.530;2023-05-25T08:02:20;10.18;;;5.15;;
13202;SDS011;6666;51.626;7.530;2023-05-25T08:04:48;12.98;;;5.30;;
13202;SDS011;6666;51.626;7.530;2023-05-25T08:07:17;8.93;;;5.20;;
13202;SDS011;6666;51.626;7.530;2023-05-25T08:09:46;9.70;;;4.80;;
13202;SDS011;6666;51.626;7.530;2023-05-25T08:12:14;12.05;;;4.55;;
13202;SDS011;6666;51.626;7.530;2023-05-25T08:15:02;9.38;;;5.00;;
13202;SDS011;6666;51.626;7.530;2023-05-25T08:17:32;10.23;;;5.28;;
13202;SDS011;6666;51.626;7.530;2023-05-25T08:20:00;11.68;;;4.93;;
13202;SDS011;6666;51.626;7.530;2023-05-25T08:22:31;8.85;;;4.80;;
13202;SDS011;6666;51.626;7.530;2023-05-25T08:24:59;9.68;;;5.10;;
13202;SDS011;6666;51.626;7.530;2023-05-25T08:27:27;9.10;;;4.50;;
13202;SDS011;6666;51.626;7.530;2023-05-25T08:29:58;8.30;;;3.90;;
13202;SDS011;6666;51.626;7.530;2023-05-25T08:32:26;7.17;;;3.70;;
13202;SDS011;6666;51.626;7.530;2023-05-25T08:34:55;7.15;;;3.20;;
13202;SDS011;6666;51.626;7.530;2023-05-25T08:37:23;8.55;;;3.90;;
13202;SDS011;6666;51.626;7.530;2023-05-25T08:39:51;5.43;;;3.90;;
13202;SDS011;6666;51.626;7.530;2023-05-25T08:42:20;8.10;;;3.90;;
13202;SDS011;6666;51.626;7.530;2023-05-25T08:44:49;14.07;;;4.47;;
13202;SDS011;6666;51.626;7.530;2023-05-25T08:47:17;13.07;;;4.55;;
13202;SDS011;6666;51.626;7.530;2023-05-25T08:49:49;15.07;;;4.50;;
13202;SDS011;6666;51.626;7.530;2023-05-25T08:52:20;6.35;;;3.80;;
13202;SDS011;6666;51.626;7.530;2023-05-25T08:54:50;12.27;;;4.30;;
13202;SDS011;6666;51.626;7.530;2023-05-25T08:57:22;10.57;;;3.93;;
13202;SDS011;6666;51.626;7.530;2023-05-25T08:59:57;9.73;;;4.50;;
13202;SDS011;6666;51.626;7.530;2023-05-25T09:02:31;9.25;;;4.10;;
13202;SDS011;6666;51.626;7.530;2023-05-25T09:05:02;8.77;;;4.40;;
13202;SDS011;6666;51.626;7.530;2023-05-25T09:07:32;9.70;;;4.40;;
13202;SDS011;6666;51.626;7.530;2023-05-25T09:10:01;10.25;;;4.55;;
13202;SDS011;6666;51.626;7.530;2023-05-25T09:12:30;7.90;;;4.80;;
13202;SDS011;6666;51.626;7.530;2023-05-25T09:14:58;9.23;;;4.45;;
13202;SDS011;6666;51.626;7.530;2023-05-25T09:17:27;9.75;;;4.20;;
13202;SDS011;6666;51.626;7.530;2023-05-25T09:19:55;11.53;;;4.80;;
13202;SDS011;6666;51.626;7.530;2023-05-25T09:22:23;10.88;;;4.05;;
13202;SDS011;6666;51.626;7.530;2023-05-25T09:24:52;6.75;;;3.72;;
13202;SDS011;6666;51.626;7.530;2023-05-25T09:27:22;9.43;;;4.13;;
13202;SDS011;6666;51.626;7.530;2023-05-25T09:29:50;9.45;;;4.35;;
13202;SDS011;6666;51.626;7.530;2023-05-25T09:32:18;6.88;;;4.10;;
13202;SDS011;6666;51.626;7.530;2023-05-25T09:34:46;10.40;;;4.07;;
13202;SDS011;6666;51.626;7.530;2023-05-25T09:37:15;10.05;;;3.90;;
13202;SDS011;6666;51.626;7.530;2023-05-25T09:39:45;11.07;;;4.32;;
13202;SDS011;6666;51.626;7.530;2023-05-25T09:42:15;10.45;;;4.25;;
13202;SDS011;6666;51.626;7.530;2023-05-25T09:44:44;9.45;;;4.30;;
13202;SDS011;6666;51.626;7.530;2023-05-25T09:47:12;11.38;;;5.78;;
13202;SDS011;6666;51.626;7.530;2023-05-25T09:49:42;8.95;;;4.70;;
13202;SDS011;6666;51.626;7.530;2023-05-25T09:52:13;10.33;;;4.67;;
13202;SDS011;6666;51.626;7.530;2023-05-25T09:54:42;8.10;;;3.92;;
13202;SDS011;6666;51.626;7.530;2023-05-25T09:57:11;7.80;;;4.10;;
13202;SDS011;6666;51.626;7.530;2023-05-25T09:59:41;8.57;;;4.07;;
13202;SDS011;6666;51.626;7.530;2023-05-25T10:02:10;11.40;;;6.38;;
13202;SDS011;6666;51.626;7.530;2023-05-25T10:04:39;11.40;;;6.45;;
13202;SDS011;6666;51.626;7.530;2023-05-25T10:07:07;10.18;;;4.22;;
13202;SDS011;6666;51.626;7.530;2023-05-25T10:09:37;11.60;;;4.18;;
13202;SDS011;6666;51.626;7.530;2023-05-25T10:12:07;8.63;;;3.97;;
13202;SDS011;6666;51.626;7.530;2023-05-25T10:14:36;11.57;;;4.25;;
13202;SDS011;6666;51.626;7.530;2023-05-25T10:17:06;9.70;;;4.10;;
13202;SDS011;6666;51.626;7.530;2023-05-25T10:19:39;9.35;;;4.30;;
13202;SDS011;6666;51.626;7.530;2023-05-25T10:22:14;11.00;;;4.40;;
13202;SDS011;6666;51.626;7.530;2023-05-25T10:24:49;8.45;;;3.80;;
13202;SDS011;6666;51.626;7.530;2023-05-25T10:27:22;7.97;;;3.70;;
13202;SDS011;6666;51.626;7.530;2023-05-25T10:29:53;8.60;;;3.93;;
13202;SDS011;6666;51.626;7.530;2023-05-25T10:32:24;8.60;;;4.23;;
13202;SDS011;6666;51.626;7.530;2023-05-25T10:34:53;10.15;;;4.47;;
13202;SDS011;6666;51.626;7.530;2023-05-25T10:37:23;9.38;;;4.50;;
13202;SDS011;6666;51.626;7.530;2023-05-25T10:39:53;7.00;;;4.30;;
13202;SDS011;6666;51.626;7.530;2023-05-25T10:42:23;9.70;;;4.20;;
13202;SDS011;6666;51.626;7.530;2023-05-25T10:44:52;7.57;;;4.43;;
13202;SDS011;6666;51.626;7.530;2023-05-25T10:47:21;7.78;;;3.80;;
13202;SDS011;6666;51.626;7.530;2023-05-25T10:49:52;11.90;;;4.27;;
13202;SDS011;6666;51.626;7.530;2023-05-25T10:52:21;8.37;;;4.20;;
13202;SDS011;6666;51.626;7.530;2023-05-25T10:54:54;9.50;;;4.30;;
13202;SDS011;6666;51.626;7.530;2023-05-25T10:57:23;8.70;;;5.00;;
13202;SDS011;6666;51.626;7.530;2023-05-25T10:59:53;11.10;;;4.53;;
13202;SDS011;6666;51.626;7.530;2023-05-25T11:02:28;12.15;;;4.90;;
13202;SDS011;6666;51.626;7.530;2023-05-25T11:08:05;11.27;;;4.13;;
13202;SDS011;6666;51.626;7.530;2023-05-25T11:13:34;13.30;;;5.70;;
13202;SDS011;6666;51.626;7.530;2023-05-25T11:16:07;8.48;;;4.13;;
13202;SDS011;6666;51.626;7.530;2023-05-25T11:18:40;11.80;;;4.20;;
13202;SDS011;6666;51.626;7.530;2023-05-25T11:21:14;9.05;;;4.55;;
13202;SDS011;6666;51.626;7.530;2023-05-25T11:23:54;7.82;;;4.30;;
13202;SDS011;6666;51.626;7.530;2023-05-25T11:26:23;11.15;;;4.55;;
13202;SDS011;6666;51.626;7.530;2023-05-25T11:28:53;9.80;;;4.53;;
13202;SDS011;6666;51.626;7.530;2023-05-25T11:31:27;11.85;;;4.50;;
13202;SDS011;6666;51.626;7.530;2023-05-25T11:34:04;11.10;;;4.60;;
13202;SDS011;6666;51.626;7.530;2023-05-25T11:36:33;11.05;;;4.40;;
13202;SDS011;6666;51.626;7.530;2023-05-25T11:39:02;10.20;;;4.70;;
13202;SDS011;6666;51.626;7.530;2023-05-25T11:41:45;11.45;;;4.10;;
13202;SDS011;6666;51.626;7.530;2023-05-25T11:44:24;16.55;;;6.95;;
13202;SDS011;6666;51.626;7.530;2023-05-25T11:46:54;13.27;;;4.70;;
13202;SDS011;6666;51.626;7.530;2023-05-25T11:49:24;13.17;;;4.80;;
13202;SDS011;6666;51.626;7.530;2023-05-25T11:51:53;11.60;;;4.60;;
13202;SDS011;6666;51.626;7.530;2023-05-25T11:54:23;12.10;;;4.30;;
13202;SDS011;6666;51.626;7.530;2023-05-25T11:56:52;9.15;;;4.00;;
13202;SDS011;6666;51.626;7.530;2023-05-25T11:59:24;12.02;;;4.50;;
13202;SDS011;6666;51.626;7.530;2023-05-25T12:01:57;9.90;;;3.80;;
13202;SDS011;6666;51.626;7.530;2023-05-25T12:04:27;6.53;;;4.10;;
13202;SDS011;6666;51.626;7.530;2023-05-25T12:07:00;11.27;;;4.03;;
13202;SDS011;6666;51.626;7.530;2023-05-25T12:09:29;11.75;;;3.95;;
13202;SDS011;6666;51.626;7.530;2023-05-25T12:11:57;8.48;;;3.67;;
13202;SDS011;6666;51.626;7.530;2023-05-25T12:14:26;8.07;;;3.78;;
13202;SDS011;6666;51.626;7.530;2023-05-25T12:16:54;8.52;;;3.70;;
13202;SDS011;6666;51.626;7.530;2023-05-25T12:19:23;8.70;;;3.60;;
13202;SDS011;6666;51.626;7.530;2023-05-25T12:21:52;7.67;;;3.10;;
13202;SDS011;6666;51.626;7.530;2023-05-25T12:24:21;8.25;;;3.55;;
13202;SDS011;6666;51.626;7.530;2023-05-25T12:26:51;5.90;;;3.38;;
13202;SDS011;6666;51.626;7.530;2023-05-25T12:29:23;6.57;;;3.03;;
13202;SDS011;6666;51.626;7.530;2023-05-25T12:31:51;6.68;;;3.22;;
13202;SDS011;6666;51.626;7.530;2023-05-25T12:34:19;7.00;;;3.30;;
13202;SDS011;6666;51.626;7.530;2023-05-25T12:36:48;8.38;;;3.50;;
13202;SDS011;6666;51.626;7.530;2023-05-25T12:39:30;8.10;;;2.85;;
13202;SDS011;6666;51.626;7.530;2023-05-25T12:42:04;7.00;;;3.57;;
13202;SDS011;6666;51.626;7.530;2023-05-25T12:44:39;5.65;;;3.67;;
13202;SDS011;6666;51.626;7.530;2023-05-25T12:47:08;7.63;;;3.73;;
13202;SDS011;6666;51.626;7.530;2023-05-25T12:49:38;7.25;;;3.70;;
13202;SDS011;6666;51.626;7.530;2023-05-25T12:52:07;9.57;;;3.60;;
13202;SDS011;6666;51.626;7.530;2023-05-25T12:54:38;6.07;;;3.80;;
13202;SDS011;6666;51.626;7.530;2023-05-25T12:57:10;7.70;;;3.65;;
13202;SDS011;6666;51.626;7.530;2023-05-25T12:59:39;5.20;;;3.70;;
13202;SDS011;6666;51.626;7.530;2023-05-25T13:02:08;7.50;;;3.75;;
13202;SDS011;6666;51.626;7.530;2023-05-25T13:04:39;10.55;;;3.80;;
13202;SDS011;6666;51.626;7.530;2023-05-25T13:07:07;8.40;;;3.50;;
13202;SDS011;6666;51.626;7.530;2023-05-25T13:09:37;6.45;;;3.35;;
13202;SDS011;6666;51.626;7.530;2023-05-25T13:12:06;7.53;;;3.88;;
13202;SDS011;6666;51.626;7.530;2023-05-25T13:14:34;5.13;;;3.30;;
13202;SDS011;6666;51.626;7.530;2023-05-25T13:17:02;8.63;;;3.58;;
13202;SDS011;6666;51.626;7.530;2023-05-25T13:19:31;8.05;;;3.80;;
13202;SDS011;6666;51.626;7.530;2023-05-25T13:21:59;8.18;;;4.20;;
13202;SDS011;6666;51.626;7.530;2023-05-25T13:24:28;7.78;;;3.92;;
13202;SDS011;6666;51.626;7.530;2023-05-25T13:26:57;7.20;;;3.58;;
13202;SDS011;6666;51.626;7.530;2023-05-25T13:29:28;11.68;;;4.10;;
13202;SDS011;6666;51.626;7.530;2023-05-25T13:31:56;14.75;;;6.13;;
13202;SDS011;6666;51.626;7.530;2023-05-25T13:34:24;7.83;;;3.80;;
13202;SDS011;6666;51.626;7.530;2023-05-25T13:36:52;8.35;;;4.10;;
13202;SDS011;6666;51.626;7.530;2023-05-25T13:39:20;6.38;;;4.10;;
13202;SDS011;6666;51.626;7.530;2023-05-25T13:41:48;7.95;;;3.50;;
13202;SDS011;6666;51.626;7.530;2023-05-25T13:44:18;8.52;;;3.35;;
13202;SDS011;6666;51.626;7.530;2023-05-25T13:46:46;12.07;;;3.33;;
13202;SDS011;6666;51.626;7.530;2023-05-25T13:49:14;8.20;;;3.90;;
13202;SDS011;6666;51.626;7.530;2023-05-25T13:51:44;6.37;;;3.70;;
13202;SDS011;6666;51.626;7.530;2023-05-25T13:54:13;8.10;;;3.70;;
13202;SDS011;6666;51.626;7.530;2023-05-25T13:56:41;6.20;;;3.40;;
13202;SDS011;6666;51.626;7.530;2023-05-25T13:59:09;8.00;;;3.60;;
13202;SDS011;6666;51.626;7.530;2023-05-25T14:01:43;8.52;;;4.00;;
13202;SDS011;6666;51.626;7.530;2023-05-25T14:04:12;9.40;;;3.50;;
13202;SDS011;6666;51.626;7.530;2023-05-25T14:06:44;6.55;;;3.30;;
13202;SDS011;6666;51.626;7.530;2023-05-25T14:09:12;10.27;;;3.75;;
13202;SDS011;6666;51.626;7.530;2023-05-25T14:11:41;6.63;;;3.80;;
13202;SDS011;6666;51.626;7.530;2023-05-25T14:14:09;7.13;;;4.18;;
13202;SDS011;6666;51.626;7.530;2023-05-25T14:16:57;6.43;;;3.50;;
13202;SDS011;6666;51.626;7.530;2023-05-25T14:19:26;8.75;;;3.70;;
13202;SDS011;6666;51.626;7.530;2023-05-25T14:21:54;10.98;;;3.85;;
13202;SDS011;6666;51.626;7.530;2023-05-25T14:24:38;9.73;;;4.17;;
13202;SDS011;6666;51.626;7.530;2023-05-25T14:27:07;7.20;;;3.60;;
13202;SDS011;6666;51.626;7.530;2023-05-25T14:29:35;10.90;;;3.97;;
13202;SDS011;6666;51.626;7.530;2023-05-25T14:32:05;6.75;;;4.00;;
13202;SDS011;6666;51.626;7.530;2023-05-25T14:34:36;8.80;;;3.50;;
13202;SDS011;6666;51.626;7.530;2023-05-25T14:37:04;5.15;;;3.50;;
13202;SDS011;6666;51.626;7.530;2023-05-25T14:39:32;9.20;;;3.90;;
13202;SDS011;6666;51.626;7.530;2023-05-25T14:42:01;8.52;;;3.50;;
13202;SDS011;6666;51.626;7.530;2023-05-25T14:44:29;8.27;;;3.70;;
13202;SDS011;6666;51.626;7.530;2023-05-25T14:46:58;8.85;;;3.70;;
13202;SDS011;6666;51.626;7.530;2023-05-25T14:49:28;5.80;;;3.40;;
13202;SDS011;6666;51.626;7.530;2023-05-25T14:51:56;8.45;;;3.88;;
13202;SDS011;6666;51.626;7.530;2023-05-25T14:54:24;8.45;;;3.50;;
13202;SDS011;6666;51.626;7.530;2023-05-25T14:56:53;9.13;;;4.20;;
13202;SDS011;6666;51.626;7.530;2023-05-25T14:59:21;9.18;;;4.10;;
13202;SDS011;6666;51.626;7.530;2023-05-25T15:01:49;9.40;;;3.80;;
13202;SDS011;6666;51.626;7.530;2023-05-25T15:04:17;5.80;;;3.10;;
13202;SDS011;6666;51.626;7.530;2023-05-25T15:06:47;7.93;;;3.88;;
13202;SDS011;6666;51.626;7.530;2023-05-25T15:09:15;5.57;;;3.78;;
13202;SDS011;6666;51.626;7.530;2023-05-25T15:11:44;7.20;;;3.70;;
13202;SDS011;6666;51.626;7.530;2023-05-25T15:14:12;6.22;;;4.03;;
13202;SDS011;6666;51.626;7.530;2023-05-25T15:16:41;8.82;;;4.60;;
13202;SDS011;6666;51.626;7.530;2023-05-25T15:19:10;12.25;;;5.80;;